Time;durP1;ratioP1;P1;durP2;ratioP2;P2;SDS_P1;SDS_P2;PMS_P1;PMS_P2;Temp;Humidity;BMP_temperature;BMP_pressure;BME280_temperature;BME280_humidity;BME280_pressure;Samples;Min_cycle;Max_cycle;Signal;HPM_P1;HPM_P2
2024/02/23 00:00:50;;;;;;;6.00;4.07;;;;;;;;;;6256100;28;20051;-76
2024/02/23 00:03:55;;;;;;;7.40;3.92;;;;;;;;;;6271552;28;20449;-76
2024/02/23 00:06:58;;;;;;;7.13;4.60;;;;;;;;;;6269287;28;20055;-75
2024/02/23 00:10:00;;;;;;;7.53;4.30;;;;;;;;;;6277334;28;20037;-75
2024/02/23 00:13:02;;;;;;;7.25;4.80;;;;;;;;;;6285699;28;20174;-75
2024/02/23 00:16:04;;;;;;;7.50;4.35;;;;;;;;;;6272483;28;20058;-74
2024/02/23 00:19:10;;;;;;;7.18;4.15;;;;;;;;;;6270518;28;20045;-75
2024/02/23 00:22:13;;;;;;;5.85;3.85;;;;;;;;;;6265805;28;20044;-74
2024/02/23 00:25:15;;;;;;;7.25;3.85;;;;;;;;;;6280847;28;20494;-74
2024/02/23 00:28:17;;;;;;;7.78;3.80;;;;;;;;;;6277038;28;20040;-74
2024/02/23 00:31:21;;;;;;;10.20;4.90;;;;;;;;;;6254904;28;20095;-74
2024/02/23 00:34:24;;;;;;;8.90;4.53;;;;;;;;;;6247812;28;20053;-75
2024/02/23 00:37:27;;;;;;;8.07;4.72;;;;;;;;;;6260652;28;20655;-75
2024/02/23 00:40:29;;;;;;;6.72;4.03;;;;;;;;;;6281707;28;20037;-75
2024/02/23 00:43:37;;;;;;;7.45;4.45;;;;;;;;;;6282976;28;20052;-76
2024/02/23 00:46:40;;;;;;;9.00;4.93;;;;;;;;;;6276401;28;20048;-76
2024/02/23 00:49:42;;;;;;;8.30;4.97;;;;;;;;;;6257623;28;20056;-76
2024/02/23 00:52:45;;;;;;;7.60;6.28;;;;;;;;;;6246375;28;20687;-76
2024/02/23 00:55:47;;;;;;;7.80;4.07;;;;;;;;;;6232054;28;20044;-76
2024/02/23 00:58:49;;;;;;;7.65;4.82;;;;;;;;;;6279735;28;20415;-76
2024/02/23 01:01:51;;;;;;;7.55;3.92;;;;;;;;;;6261334;28;20769;-76
2024/02/23 01:04:56;;;;;;;6.53;4.38;;;;;;;;;;6280527;28;20049;-76
2024/02/23 01:07:59;;;;;;;9.98;5.68;;;;;;;;;;6239189;28;20218;-76
2024/02/23 01:11:01;;;;;;;8.18;4.55;;;;;;;;;;6258720;28;20474;-76
2024/02/23 01:14:03;;;;;;;7.78;4.50;;;;;;;;;;6231202;28;20430;-76
2024/02/23 01:17:06;;;;;;;7.70;4.75;;;;;;;;;;6257830;28;20641;-76
2024/02/23 01:20:08;;;;;;;8.23;5.40;;;;;;;;;;6264543;28;20037;-76
2024/02/23 01:23:11;;;;;;;8.23;5.13;;;;;;;;;;6260690;28;20695;-76
2024/02/23 01:26:13;;;;;;;9.60;4.55;;;;;;;;;;6276454;28;20101;-76
2024/02/23 01:29:16;;;;;;;6.72;4.80;;;;;;;;;;6255680;28;20225;-76
2024/02/23 01:32:18;;;;;;;9.30;6.72;;;;;;;;;;6280316;28;20810;-76
2024/02/23 01:35:21;;;;;;;7.85;5.20;;;;;;;;;;6286967;28;20634;-76
2024/02/23 01:38:24;;;;;;;7.30;4.20;;;;;;;;;;6256978;28;20675;-77
2024/02/23 01:41:28;;;;;;;9.15;5.35;;;;;;;;;;6265862;28;20145;-74
2024/02/23 01:44:30;;;;;;;9.82;5.32;;;;;;;;;;6270372;28;20037;-76
2024/02/23 01:47:33;;;;;;;9.82;5.97;;;;;;;;;;6281339;28;20052;-76
2024/02/23 01:50:36;;;;;;;8.38;5.15;;;;;;;;;;6265973;28;20071;-76
2024/02/23 01:53:38;;;;;;;7.68;4.95;;;;;;;;;;6265829;28;20295;-77
2024/02/23 01:56:42;;;;;;;9.10;5.38;;;;;;;;;;6216197;28;20079;-76
2024/02/23 01:59:44;;;;;;;8.15;5.13;;;;;;;;;;6274934;28;20054;-75
2024/02/23 02:02:51;;;;;;;7.20;5.28;;;;;;;;;;6248728;28;20048;-78
2024/02/23 02:05:58;;;;;;;9.55;5.05;;;;;;;;;;6251110;28;20620;-76
2024/02/23 02:09:00;;;;;;;10.88;5.70;;;;;;;;;;6249316;28;20053;-76
2024/02/23 02:12:03;;;;;;;9.13;6.45;;;;;;;;;;6267449;28;20493;-77
2024/02/23 02:15:06;;;;;;;8.38;5.45;;;;;;;;;;6258957;28;20250;-76
2024/02/23 02:18:08;;;;;;;8.95;5.38;;;;;;;;;;6247989;28;20052;-77
2024/02/23 02:21:10;;;;;;;10.18;5.40;;;;;;;;;;6238258;28;20469;-76
2024/02/23 02:24:13;;;;;;;7.85;5.10;;;;;;;;;;6280503;28;20135;-76
2024/02/23 02:27:16;;;;;;;10.07;5.95;;;;;;;;;;6215863;28;20046;-76
2024/02/23 02:30:18;;;;;;;9.30;5.70;;;;;;;;;;6284810;28;20091;-76
2024/02/23 02:33:21;;;;;;;8.38;5.13;;;;;;;;;;6254819;28;20052;-76
2024/02/23 02:36:23;;;;;;;9.70;5.28;;;;;;;;;;6225954;28;20508;-76
2024/02/23 02:39:25;;;;;;;9.15;5.13;;;;;;;;;;6284749;28;20390;-76
2024/02/23 02:42:28;;;;;;;10.07;5.93;;;;;;;;;;6279761;28;20049;-77
2024/02/23 02:45:32;;;;;;;8.57;5.63;;;;;;;;;;6262360;28;20060;-77
2024/02/23 02:48:34;;;;;;;11.00;5.63;;;;;;;;;;6265745;28;20040;-77
2024/02/23 02:51:37;;;;;;;7.47;5.55;;;;;;;;;;6258553;28;20052;-75
2024/02/23 02:54:40;;;;;;;8.07;5.53;;;;;;;;;;6265033;28;20108;-76
2024/02/23 02:57:44;;;;;;;9.95;6.47;;;;;;;;;;6224270;28;20060;-76
2024/02/23 03:00:47;;;;;;;11.85;5.93;;;;;;;;;;6250868;28;20045;-76
2024/02/23 03:03:49;;;;;;;8.77;5.75;;;;;;;;;;6236659;28;20776;-76
2024/02/23 03:06:51;;;;;;;10.85;6.78;;;;;;;;;;6267995;28;20044;-77
2024/02/23 03:09:54;;;;;;;8.65;4.45;;;;;;;;;;6242659;28;20406;-77
2024/02/23 03:12:56;;;;;;;9.82;5.57;;;;;;;;;;6251853;28;20048;-75
2024/02/23 03:15:59;;;;;;;12.13;6.38;;;;;;;;;;6285505;28;20048;-76
2024/02/23 03:19:02;;;;;;;9.00;5.53;;;;;;;;;;6289096;28;20036;-76
2024/02/23 03:22:05;;;;;;;9.70;6.20;;;;;;;;;;6258883;28;20767;-76
2024/02/23 03:25:10;;;;;;;10.15;6.45;;;;;;;;;;6287744;28;20098;-77
2024/02/23 03:28:12;;;;;;;10.10;5.78;;;;;;;;;;6259885;28;20079;-77
2024/02/23 03:31:14;;;;;;;10.40;5.72;;;;;;;;;;6281470;28;20708;-76
2024/02/23 03:34:17;;;;;;;10.23;6.03;;;;;;;;;;6248397;28;20049;-76
2024/02/23 03:37:19;;;;;;;8.93;5.40;;;;;;;;;;6267453;28;20044;-76
2024/02/23 03:40:21;;;;;;;9.68;4.97;;;;;;;;;;6252680;28;20090;-77
2024/02/23 03:43:23;;;;;;;10.23;4.50;;;;;;;;;;6283472;28;20052;-76
2024/02/23 03:46:26;;;;;;;9.35;5.78;;;;;;;;;;6266481;28;20055;-76
2024/02/23 03:49:28;;;;;;;10.32;5.68;;;;;;;;;;6284293;28;20159;-76
2024/02/23 03:52:30;;;;;;;8.18;5.40;;;;;;;;;;6269095;28;20110;-77
2024/02/23 03:55:32;;;;;;;9.45;6.07;;;;;;;;;;6284436;28;20513;-76
2024/02/23 03:58:34;;;;;;;12.75;6.22;;;;;;;;;;6274076;28;20055;-78
2024/02/23 04:01:37;;;;;;;10.80;5.93;;;;;;;;;;6279409;28;20048;-76
2024/02/23 04:04:40;;;;;;;11.90;5.13;;;;;;;;;;6245475;28;20135;-76
2024/02/23 04:07:42;;;;;;;9.07;5.28;;;;;;;;;;6267435;28;20607;-76
2024/02/23 04:10:44;;;;;;;13.15;6.45;;;;;;;;;;6267218;28;20048;-76
2024/02/23 04:13:46;;;;;;;8.82;4.85;;;;;;;;;;6259080;28;20131;-76
2024/02/23 04:16:54;;;;;;;10.40;5.88;;;;;;;;;;6264660;28;20558;-77
2024/02/23 04:19:57;;;;;;;9.50;5.90;;;;;;;;;;6228689;28;20044;-76
2024/02/23 04:22:59;;;;;;;8.98;5.93;;;;;;;;;;6284137;28;20569;-75
2024/02/23 04:26:02;;;;;;;11.13;6.05;;;;;;;;;;6249772;28;20622;-76
2024/02/23 04:29:05;;;;;;;9.98;6.38;;;;;;;;;;6286607;28;20834;-76
2024/02/23 04:32:08;;;;;;;11.55;6.07;;;;;;;;;;6263569;28;20469;-76
2024/02/23 04:35:12;;;;;;;9.82;6.30;;;;;;;;;;6269342;28;20036;-76
2024/02/23 04:38:17;;;;;;;8.60;5.22;;;;;;;;;;6282814;28;20109;-77
2024/02/23 04:41:24;;;;;;;;;;;;;;;;;;6266510;28;20041;-76
2024/02/23 04:44:26;;;;;;;9.05;5.05;;;;;;;;;;6270674;28;19928;-77
2024/02/23 04:47:29;;;;;;;9.25;5.28;;;;;;;;;;6266600;28;20146;-76
2024/02/23 04:50:31;;;;;;;9.15;5.38;;;;;;;;;;6266581;28;20029;-76
2024/02/23 04:53:37;;;;;;;9.30;5.38;;;;;;;;;;6247362;28;20049;-75
2024/02/23 04:56:39;;;;;;;10.13;6.28;;;;;;;;;;6246333;28;20067;-76
2024/02/23 04:59:43;;;;;;;9.60;5.32;;;;;;;;;;6249324;28;20725;-76
2024/02/23 05:02:46;;;;;;;12.00;6.60;;;;;;;;;;6284288;28;20587;-75
2024/02/23 05:05:53;;;;;;;10.88;6.38;;;;;;;;;;6263277;28;20415;-76
2024/02/23 05:08:56;;;;;;;9.63;5.75;;;;;;;;;;6237479;28;20719;-75
2024/02/23 05:11:59;;;;;;;9.10;5.63;;;;;;;;;;6264009;28;20071;-76
2024/02/23 05:15:03;;;;;;;10.10;6.78;;;;;;;;;;6283154;28;20032;-76
2024/02/23 05:18:06;;;;;;;9.95;5.57;;;;;;;;;;6280286;28;20548;-76
2024/02/23 05:21:09;;;;;;;10.50;5.95;;;;;;;;;;6275818;28;20044;-76
2024/02/23 05:24:11;;;;;;;15.30;7.43;;;;;;;;;;6258525;28;20052;-75
2024/02/23 05:27:13;;;;;;;8.77;5.43;;;;;;;;;;6263472;28;20049;-75
2024/02/23 05:30:16;;;;;;;10.63;5.85;;;;;;;;;;6258463;28;20370;-75
2024/02/23 05:33:20;;;;;;;8.45;5.78;;;;;;;;;;6267491;28;20044;-76
2024/02/23 05:36:23;;;;;;;10.82;6.05;;;;;;;;;;6261350;28;20059;-75
2024/02/23 05:39:25;;;;;;;10.38;7.78;;;;;;;;;;6250200;28;20093;-74
2024/02/23 05:42:28;;;;;;;10.70;6.43;;;;;;;;;;6257950;28;20050;-75
2024/02/23 05:45:31;;;;;;;15.77;7.88;;;;;;;;;;6243541;28;20128;-74
2024/02/23 05:48:34;;;;;;;14.23;7.05;;;;;;;;;;6238107;28;20739;-75
2024/02/23 05:51:36;;;;;;;11.70;6.97;;;;;;;;;;6279676;28;20558;-77
2024/02/23 05:54:39;;;;;;;15.23;6.82;;;;;;;;;;6258225;28;20425;-76
2024/02/23 05:57:41;;;;;;;13.90;8.75;;;;;;;;;;6280458;28;20961;-75
2024/02/23 06:00:43;;;;;;;14.50;6.60;;;;;;;;;;6275545;28;20742;-75
2024/02/23 06:03:45;;;;;;;12.05;6.53;;;;;;;;;;6261520;28;20098;-75
2024/02/23 06:06:47;;;;;;;13.15;8.30;;;;;;;;;;6257083;28;20050;-75
2024/02/23 06:09:50;;;;;;;11.88;7.18;;;;;;;;;;6266974;28;20044;-74
2024/02/23 06:12:52;;;;;;;14.43;7.32;;;;;;;;;;6262328;28;20113;-76
2024/02/23 06:15:57;;;;;;;;;;;;;;;;;;6255854;28;20354;-75
2024/02/23 06:19:00;;;;;;;11.57;6.55;;;;;;;;;;6277114;28;19973;-75
2024/02/23 06:22:03;;;;;;;8.93;6.15;;;;;;;;;;6237292;28;20059;-75
2024/02/23 06:25:06;;;;;;;10.23;6.00;;;;;;;;;;6275812;28;20052;-75
2024/02/23 06:28:10;;;;;;;12.70;5.90;;;;;;;;;;6263759;28;20040;-76
2024/02/23 06:31:16;;;;;;;12.25;6.93;;;;;;;;;;6276711;28;20064;-76
2024/02/23 06:34:29;;;;;;;9.95;6.90;;;;;;;;;;6232327;28;20162;-75
2024/02/23 06:37:33;;;;;;;16.92;7.40;;;;;;;;;;6264090;28;20048;-76
2024/02/23 06:40:35;;;;;;;13.50;6.80;;;;;;;;;;6240741;28;20049;-75
2024/02/23 06:43:53;;;;;;;;;;;;;;;;;;6273557;28;20105;-76
2024/02/23 06:46:56;;;;;;;8.82;5.70;;;;;;;;;;6256368;28;19924;-76
2024/02/23 06:49:59;;;;;;;9.90;6.40;;;;;;;;;;6257376;28;20049;-77
2024/02/23 06:53:02;;;;;;;9.63;5.20;;;;;;;;;;6257505;28;20441;-76
2024/02/23 06:56:06;;;;;;;10.15;5.60;;;;;;;;;;6263744;28;20037;-77
2024/02/23 06:59:08;;;;;;;9.65;5.97;;;;;;;;;;6251116;28;20044;-76
2024/02/23 07:02:11;;;;;;;11.55;5.65;;;;;;;;;;6255807;28;20049;-77
2024/02/23 07:05:14;;;;;;;10.77;6.35;;;;;;;;;;6247071;28;20109;-76
2024/02/23 07:08:16;;;;;;;9.77;6.45;;;;;;;;;;6255825;28;20048;-77
2024/02/23 07:11:18;;;;;;;7.82;5.03;;;;;;;;;;6240382;28;20146;-76
2024/02/23 07:14:22;;;;;;;9.68;5.85;;;;;;;;;;6244413;28;20071;-76
2024/02/23 07:17:24;;;;;;;10.73;6.65;;;;;;;;;;6238353;28;20087;-77
2024/02/23 07:20:26;;;;;;;8.80;5.15;;;;;;;;;;6281653;28;20032;-77
2024/02/23 07:23:30;;;;;;;7.85;4.82;;;;;;;;;;6236551;28;20176;-80
2024/02/23 07:26:33;;;;;;;8.40;5.13;;;;;;;;;;6247760;28;20075;-77
2024/02/23 07:29:36;;;;;;;9.00;5.45;;;;;;;;;;6248901;28;20722;-75
2024/02/23 07:32:38;;;;;;;9.32;4.35;;;;;;;;;;6230696;28;20067;-75
2024/02/23 07:35:42;;;;;;;8.05;5.03;;;;;;;;;;6260695;28;20053;-77
2024/02/23 07:38:49;;;;;;;8.70;4.85;;;;;;;;;;6275924;28;20588;-76
2024/02/23 07:41:51;;;;;;;7.25;3.97;;;;;;;;;;6279985;28;20135;-77
2024/02/23 07:44:53;;;;;;;7.40;4.70;;;;;;;;;;6261898;28;20118;-75
2024/02/23 07:47:56;;;;;;;10.32;4.45;;;;;;;;;;6249045;28;20079;-75
2024/02/23 07:50:59;;;;;;;9.68;4.18;;;;;;;;;;6267343;28;20044;-76
2024/02/23 07:54:02;;;;;;;7.78;4.75;;;;;;;;;;6248470;28;20102;-76
2024/02/23 07:57:07;;;;;;;8.80;5.70;;;;;;;;;;6248066;28;20052;-76
2024/02/23 08:00:11;;;;;;;6.20;3.88;;;;;;;;;;6251463;28;20033;-75
2024/02/23 08:03:14;;;;;;;7.97;5.97;;;;;;;;;;6283784;28;20486;-76
2024/02/23 08:06:16;;;;;;;7.28;4.47;;;;;;;;;;6265117;28;20049;-76
2024/02/23 08:09:19;;;;;;;7.57;4.75;;;;;;;;;;6273624;28;20056;-76
2024/02/23 08:12:21;;;;;;;7.82;4.55;;;;;;;;;;6282630;28;20879;-76
2024/02/23 08:15:25;;;;;;;9.80;4.22;;;;;;;;;;6286037;28;20719;-77
2024/02/23 08:18:28;;;;;;;6.60;4.28;;;;;;;;;;6285240;28;20037;-76
2024/02/23 08:21:30;;;;;;;7.70;3.88;;;;;;;;;;6262053;28;20470;-76
2024/02/23 08:24:32;;;;;;;10.40;5.30;;;;;;;;;;6285649;28;20048;-76
2024/02/23 08:27:34;;;;;;;16.38;8.57;;;;;;;;;;6267893;28;20891;-76
2024/02/23 08:30:38;;;;;;;6.70;4.00;;;;;;;;;;6250785;28;20048;-76
2024/02/23 08:33:41;;;;;;;11.07;3.55;;;;;;;;;;6242451;28;20063;-77
2024/02/23 08:36:44;;;;;;;6.18;4.20;;;;;;;;;;6289842;28;20159;-77
2024/02/23 08:39:46;;;;;;;7.15;3.92;;;;;;;;;;6233001;28;20049;-78
2024/02/23 08:42:49;;;;;;;31.35;12.68;;;;;;;;;;6258491;28;20056;-78
2024/02/23 08:45:52;;;;;;;7.38;4.00;;;;;;;;;;6298574;28;20056;-77
2024/02/23 08:48:54;;;;;;;8.00;4.47;;;;;;;;;;6268383;28;20589;-76
2024/02/23 08:51:58;;;;;;;11.18;6.38;;;;;;;;;;6252657;28;20171;-80
2024/02/23 08:55:03;;;;;;;63.47;30.23;;;;;;;;;;6237623;28;20083;-78
2024/02/23 08:58:06;;;;;;;44.90;20.63;;;;;;;;;;6251741;28;20143;-77
2024/02/23 09:01:11;;;;;;;14.13;6.15;;;;;;;;;;6231780;28;20044;-81
2024/02/23 09:04:36;;;;;;;6.75;4.00;;;;;;;;;;6251545;28;20167;-80
2024/02/23 09:08:07;;;;;;;7.57;4.18;;;;;;;;;;6256232;28;20439;-81
2024/02/23 09:11:13;;;;;;;9.05;6.30;;;;;;;;;;6276376;28;20047;-80
2024/02/23 09:14:27;;;;;;;14.52;10.45;;;;;;;;;;6254856;28;20123;-79
2024/02/23 09:17:43;;;;;;;7.05;3.67;;;;;;;;;;6277274;28;20052;-80
2024/02/23 09:20:56;;;;;;;45.40;28.70;;;;;;;;;;6197383;28;20126;-79
2024/02/23 09:24:09;;;;;;;7.28;4.10;;;;;;;;;;6261918;28;20044;-82
2024/02/23 09:27:11;;;;;;;7.13;4.60;;;;;;;;;;6250360;28;20052;-81
2024/02/23 09:30:14;;;;;;;7.30;3.53;;;;;;;;;;6283150;28;20040;-81
2024/02/23 09:33:17;;;;;;;6.15;3.45;;;;;;;;;;6251575;28;20040;-80
2024/02/23 09:36:20;;;;;;;6.13;2.75;;;;;;;;;;6283243;28;20039;-81
2024/02/23 09:39:26;;;;;;;6.82;3.13;;;;;;;;;;6235586;28;20433;-80
2024/02/23 09:42:32;;;;;;;5.30;2.78;;;;;;;;;;6294551;28;20079;-79
2024/02/23 09:45:35;;;;;;;5.60;3.60;;;;;;;;;;6284344;28;20040;-80
2024/02/23 09:48:38;;;;;;;5.35;3.47;;;;;;;;;;6250845;28;20075;-79
2024/02/23 09:51:44;;;;;;;5.40;2.30;;;;;;;;;;6249428;28;20573;-80
2024/02/23 09:54:46;;;;;;;5.88;2.60;;;;;;;;;;6266601;28;20059;-79
2024/02/23 09:57:54;;;;;;;8.07;3.03;;;;;;;;;;6260617;28;20053;-80
2024/02/23 10:00:58;;;;;;;5.97;3.85;;;;;;;;;;6264758;28;20036;-80
2024/02/23 10:04:04;;;;;;;5.40;2.80;;;;;;;;;;6240993;28;20164;-78
2024/02/23 10:07:07;;;;;;;6.25;2.97;;;;;;;;;;6248836;28;20453;-78
2024/02/23 10:10:10;;;;;;;5.28;2.83;;;;;;;;;;6248306;28;20047;-79
2024/02/23 10:13:13;;;;;;;5.05;2.63;;;;;;;;;;6259827;28;20054;-79
2024/02/23 10:16:16;;;;;;;6.85;3.22;;;;;;;;;;6276278;28;20250;-80
2024/02/23 10:19:19;;;;;;;9.43;3.15;;;;;;;;;;6247734;28;20587;-79
2024/02/23 10:22:24;;;;;;;4.88;2.38;;;;;;;;;;6253909;28;20033;-79
2024/02/23 10:25:29;;;;;;;3.78;2.05;;;;;;;;;;6244763;28;20591;-79
2024/02/23 10:28:31;;;;;;;4.78;2.63;;;;;;;;;;6259204;28;20072;-79
2024/02/23 10:31:36;;;;;;;5.10;3.22;;;;;;;;;;6253783;28;20151;-80
2024/02/23 10:34:39;;;;;;;6.18;2.97;;;;;;;;;;6277097;28;20049;-79
2024/02/23 10:37:50;;;;;;;4.75;3.53;;;;;;;;;;6243320;28;20049;-80
2024/02/23 10:40:57;;;;;;;2.55;1.13;;;;;;;;;;6280747;28;20438;-79
2024/02/23 10:44:01;;;;;;;5.53;2.20;;;;;;;;;;6264687;28;20083;-79
2024/02/23 10:47:04;;;;;;;5.63;3.28;;;;;;;;;;6241365;28;20684;-79
2024/02/23 10:50:07;;;;;;;5.68;3.92;;;;;;;;;;6246441;28;20048;-79
2024/02/23 10:53:10;;;;;;;3.50;1.85;;;;;;;;;;6248617;28;20884;-80
2024/02/23 10:56:15;;;;;;;3.88;1.92;;;;;;;;;;6248301;28;20536;-79
2024/02/23 10:59:22;;;;;;;4.68;2.42;;;;;;;;;;6229071;28;20557;-80
2024/02/23 11:02:28;;;;;;;4.70;2.80;;;;;;;;;;6263135;28;20093;-79
2024/02/23 11:05:33;;;;;;;3.67;1.88;;;;;;;;;;6233449;28;20102;-79
2024/02/23 11:08:36;;;;;;;7.55;1.67;;;;;;;;;;6286685;28;20881;-80
2024/02/23 11:11:39;;;;;;;4.88;2.08;;;;;;;;;;6251574;28;20052;-80
2024/02/23 11:14:44;;;;;;;3.25;1.60;;;;;;;;;;6228672;28;20604;-79
2024/02/23 11:17:49;;;;;;;;;;;;;;;;;;6241725;28;20044;-79
2024/02/23 11:20:58;;;;;;;5.30;1.40;;;;;;;;;;6246261;28;20010;-79
2024/02/23 11:24:06;;;;;;;4.57;1.48;;;;;;;;;;6268298;28;20742;-78
2024/02/23 11:27:14;;;;;;;4.07;2.38;;;;;;;;;;6240246;28;20049;-77
2024/02/23 11:30:17;;;;;;;4.07;1.70;;;;;;;;;;6270029;28;20044;-77
2024/02/23 11:33:38;;;;;;;3.88;2.00;;;;;;;;;;6263005;28;20048;-78
2024/02/23 11:36:42;;;;;;;5.57;2.67;;;;;;;;;;6284993;28;20866;-77
2024/02/23 11:39:45;;;;;;;3.28;2.30;;;;;;;;;;6266131;28;20090;-77
2024/02/23 11:42:47;;;;;;;5.15;2.60;;;;;;;;;;6244788;28;20194;-78
2024/02/23 11:45:51;;;;;;;3.55;1.95;;;;;;;;;;6228279;28;20048;-78
2024/02/23 11:48:54;;;;;;;3.40;1.73;;;;;;;;;;6253766;28;20466;-78
2024/02/23 11:51:58;;;;;;;6.35;2.83;;;;;;;;;;6242653;28;20090;-78
2024/02/23 11:55:00;;;;;;;6.85;3.55;;;;;;;;;;6242844;28;20041;-78
2024/02/23 11:58:06;;;;;;;5.38;2.90;;;;;;;;;;6280007;28;20056;-77
2024/02/23 12:01:19;;;;;;;6.00;3.35;;;;;;;;;;6272621;28;20049;-77
2024/02/23 12:04:21;;;;;;;4.15;2.00;;;;;;;;;;6281829;28;20178;-77
2024/02/23 12:07:25;;;;;;;4.13;2.00;;;;;;;;;;6246518;28;20044;-77
2024/02/23 12:10:28;;;;;;;5.65;2.13;;;;;;;;;;6260800;28;20045;-78
2024/02/23 12:13:32;;;;;;;3.22;1.58;;;;;;;;;;6278808;28;20055;-78
2024/02/23 12:16:36;;;;;;;3.95;2.78;;;;;;;;;;6211549;28;20063;-77
2024/02/23 12:19:39;;;;;;;4.35;2.42;;;;;;;;;;6264400;28;20041;-77
2024/02/23 12:22:43;;;;;;;6.65;1.77;;;;;;;;;;6228864;28;20052;-78
2024/02/23 12:25:56;;;;;;;3.53;1.45;;;;;;;;;;6251321;28;20052;-77
2024/02/23 12:29:02;;;;;;;5.97;3.47;;;;;;;;;;6246487;28;20056;-78
2024/02/23 12:32:06;;;;;;;3.20;1.92;;;;;;;;;;6264022;28;20115;-78
2024/02/23 12:35:12;;;;;;;2.85;1.73;;;;;;;;;;6262462;28;20053;-77
2024/02/23 12:38:15;;;;;;;3.90;2.08;;;;;;;;;;6260041;28;20056;-77
2024/02/23 12:41:17;;;;;;;3.13;1.80;;;;;;;;;;6266073;28;20636;-76
2024/02/23 12:44:19;;;;;;;3.97;2.00;;;;;;;;;;6263918;28;20051;-77
2024/02/23 12:47:21;;;;;;;3.75;1.67;;;;;;;;;;6280630;28;20161;-77
2024/02/23 12:50:25;;;;;;;5.25;3.25;;;;;;;;;;6262920;28;20049;-78
2024/02/23 12:53:34;;;;;;;2.75;1.30;;;;;;;;;;6258759;28;20060;-79
2024/02/23 12:56:39;;;;;;;3.72;1.48;;;;;;;;;;6279573;28;20044;-79
2024/02/23 12:59:41;;;;;;;3.08;1.88;;;;;;;;;;6276182;28;20209;-78
2024/02/23 13:02:43;;;;;;;4.38;2.80;;;;;;;;;;6260436;28;20079;-78
2024/02/23 13:05:46;;;;;;;3.00;1.50;;;;;;;;;;6229358;28;20048;-77
2024/02/23 13:08:50;;;;;;;3.90;2.00;;;;;;;;;;6229343;28;20121;-77
2024/02/23 13:11:53;;;;;;;4.07;1.83;;;;;;;;;;6246957;28;20442;-78
2024/02/23 13:14:55;;;;;;;3.08;1.83;;;;;;;;;;6253971;28;20041;-78
2024/02/23 13:17:57;;;;;;;2.45;1.20;;;;;;;;;;6268525;28;20048;-77
2024/02/23 13:20:59;;;;;;;2.28;1.05;;;;;;;;;;6247249;28;20045;-78
2024/02/23 13:24:02;;;;;;;3.80;1.63;;;;;;;;;;6277572;28;20792;-77
2024/02/23 13:27:04;;;;;;;3.80;1.70;;;;;;;;;;6241921;28;20053;-77
2024/02/23 13:30:09;;;;;;;17.88;12.40;;;;;;;;;;6265207;28;20068;-78
2024/02/23 13:33:11;;;;;;;3.13;1.60;;;;;;;;;;6259394;28;20107;-78
2024/02/23 13:36:16;;;;;;;4.45;2.88;;;;;;;;;;6264563;28;20040;-79
2024/02/23 13:39:21;;;;;;;2.70;1.17;;;;;;;;;;6259684;28;20040;-79
2024/02/23 13:42:23;;;;;;;5.97;3.38;;;;;;;;;;6246909;28;20040;-79
2024/02/23 13:45:25;;;;;;;3.22;1.60;;;;;;;;;;6248443;28;20048;-79
2024/02/23 13:48:28;;;;;;;9.07;6.05;;;;;;;;;;6259489;28;20075;-79
2024/02/23 13:51:33;;;;;;;4.88;2.83;;;;;;;;;;6278404;28;20036;-79
2024/02/23 13:54:35;;;;;;;2.70;1.38;;;;;;;;;;6257774;28;20060;-79
2024/02/23 13:57:40;;;;;;;3.00;1.42;;;;;;;;;;6256847;28;20056;-77
2024/02/23 14:00:42;;;;;;;2.72;1.42;;;;;;;;;;6242740;28;20135;-77
2024/02/23 14:03:44;;;;;;;5.75;3.88;;;;;;;;;;6260303;28;20064;-78
2024/02/23 14:06:47;;;;;;;4.35;1.63;;;;;;;;;;6266251;28;20050;-79
2024/02/23 14:09:49;;;;;;;3.15;1.60;;;;;;;;;;6241480;28;20067;-78
2024/02/23 14:12:51;;;;;;;3.45;1.35;;;;;;;;;;6283296;28;20454;-78
2024/02/23 14:15:54;;;;;;;5.00;1.73;;;;;;;;;;6264159;28;20044;-78
2024/02/23 14:18:57;;;;;;;2.63;1.30;;;;;;;;;;6241212;28;21005;-78
2024/02/23 14:22:00;;;;;;;7.43;3.38;;;;;;;;;;6261219;28;20044;-79
2024/02/23 14:25:04;;;;;;;8.63;3.38;;;;;;;;;;6264485;28;20048;-78
2024/02/23 14:28:06;;;;;;;3.17;1.92;;;;;;;;;;6226843;28;20048;-78
2024/02/23 14:31:09;;;;;;;44.15;35.78;;;;;;;;;;6282480;28;20183;-79
2024/02/23 14:34:11;;;;;;;4.72;2.63;;;;;;;;;;6256840;28;20041;-78
2024/02/23 14:37:13;;;;;;;3.28;1.40;;;;;;;;;;6252734;28;20867;-79
2024/02/23 14:40:16;;;;;;;5.43;2.10;;;;;;;;;;6263331;28;20127;-80
2024/02/23 14:43:19;;;;;;;5.32;2.05;;;;;;;;;;6277051;28;20131;-79
2024/02/23 14:46:21;;;;;;;4.15;2.53;;;;;;;;;;6258540;28;20087;-79
2024/02/23 14:49:25;;;;;;;20.48;15.70;;;;;;;;;;6261088;28;20197;-79
2024/02/23 14:52:28;;;;;;;6.55;3.60;;;;;;;;;;6259777;28;20093;-79
2024/02/23 14:55:31;;;;;;;3.80;2.47;;;;;;;;;;6243145;28;20045;-79
2024/02/23 14:58:32;;;;;;;5.63;3.28;;;;;;;;;;6255058;28;20068;-80
2024/02/23 15:01:37;;;;;;;6.90;2.80;;;;;;;;;;6229023;28;20139;-79
2024/02/23 15:04:40;;;;;;;6.18;2.53;;;;;;;;;;6242636;28;20143;-80
2024/02/23 15:07:42;;;;;;;10.00;3.33;;;;;;;;;;6262768;28;20838;-79
2024/02/23 15:10:45;;;;;;;4.38;2.10;;;;;;;;;;6241112;28;20064;-80
2024/02/23 15:13:47;;;;;;;5.90;2.70;;;;;;;;;;6273193;28;20056;-78
2024/02/23 15:16:49;;;;;;;7.90;5.30;;;;;;;;;;6242597;28;20053;-79
2024/02/23 15:19:51;;;;;;;4.38;1.95;;;;;;;;;;6260783;28;20052;-79
2024/02/23 15:22:57;;;;;;;8.50;5.28;;;;;;;;;;6237628;28;20146;-79
2024/02/23 15:25:59;;;;;;;15.10;9.80;;;;;;;;;;6276195;28;20127;-78
2024/02/23 15:29:14;;;;;;;9.80;5.00;;;;;;;;;;6243599;28;20090;-79
2024/02/23 15:32:18;;;;;;;10.65;6.55;;;;;;;;;;6268389;28;20128;-78
2024/02/23 15:35:21;;;;;;;8.57;6.18;;;;;;;;;;6259787;28;20182;-77
2024/02/23 15:38:26;;;;;;;10.20;4.80;;;;;;;;;;6257106;28;20074;-78
2024/02/23 15:41:29;;;;;;;5.47;2.80;;;;;;;;;;6245821;28;20144;-77
2024/02/23 15:44:31;;;;;;;7.95;2.80;;;;;;;;;;6260076;28;20067;-78
2024/02/23 15:47:34;;;;;;;6.13;3.15;;;;;;;;;;6274620;28;20481;-77
2024/02/23 15:50:37;;;;;;;6.57;3.88;;;;;;;;;;6255136;28;20056;-77
2024/02/23 15:54:00;;;;;;;5.57;3.83;;;;;;;;;;6261786;28;20102;-77
2024/02/23 15:57:02;;;;;;;9.23;5.18;;;;;;;;;;6275396;28;20080;-77
2024/02/23 16:00:10;;;;;;;;;;;;;;;;;;6277437;28;20037;-78
2024/02/23 16:03:12;;;;;;;7.95;4.10;;;;;;;;;;6238830;28;19924;-77
2024/02/23 16:06:16;;;;;;;14.38;7.53;;;;;;;;;;6259912;28;20052;-78
2024/02/23 16:09:19;;;;;;;17.63;9.95;;;;;;;;;;6249794;28;20091;-78
2024/02/23 16:12:21;;;;;;;11.93;6.28;;;;;;;;;;6246169;28;20522;-77
2024/02/23 16:15:24;;;;;;;6.95;3.40;;;;;;;;;;6265045;28;20209;-77
2024/02/23 16:18:26;;;;;;;6.70;5.25;;;;;;;;;;6248810;28;20040;-77
2024/02/23 16:21:29;;;;;;;7.88;4.65;;;;;;;;;;6260883;28;20048;-76
2024/02/23 16:24:31;;;;;;;7.07;3.35;;;;;;;;;;6248350;28;20040;-78
2024/02/23 16:27:34;;;;;;;6.97;4.72;;;;;;;;;;6291818;28;20053;-79
2024/02/23 16:30:40;;;;;;;5.85;3.50;;;;;;;;;;6301829;28;20043;-78
2024/02/23 16:33:45;;;;;;;5.25;3.28;;;;;;;;;;6311421;28;20044;-78
2024/02/23 16:36:49;;;;;;;7.13;4.25;;;;;;;;;;6218296;28;20049;-80
2024/02/23 16:39:52;;;;;;;6.05;3.85;;;;;;;;;;6274157;28;20044;-79
2024/02/23 16:42:59;;;;;;;3.88;2.47;;;;;;;;;;6281613;28;20072;-80
2024/02/23 16:46:02;;;;;;;5.68;2.85;;;;;;;;;;6258794;28;20529;-80
2024/02/23 16:49:06;;;;;;;5.65;3.83;;;;;;;;;;6253480;28;20786;-78
2024/02/23 16:52:10;;;;;;;6.47;4.45;;;;;;;;;;6291917;28;20109;-79
2024/02/23 16:55:16;;;;;;;6.78;4.13;;;;;;;;;;6251990;28;20573;-78
2024/02/23 16:58:22;;;;;;;6.35;3.90;;;;;;;;;;6286261;28;21008;-79
2024/02/23 17:01:24;;;;;;;8.25;4.28;;;;;;;;;;6245854;28;20068;-77
2024/02/23 17:04:26;;;;;;;7.97;2.90;;;;;;;;;;6271178;28;20045;-77
2024/02/23 17:07:28;;;;;;;4.97;2.80;;;;;;;;;;6267713;28;20041;-78
2024/02/23 17:10:30;;;;;;;25.85;9.70;;;;;;;;;;6261300;28;20041;-78
2024/02/23 17:13:33;;;;;;;7.30;3.88;;;;;;;;;;6252352;28;20048;-78
2024/02/23 17:16:35;;;;;;;7.13;4.05;;;;;;;;;;6253613;28;20446;-77
2024/02/23 17:19:40;;;;;;;7.43;3.95;;;;;;;;;;6297661;28;20045;-77
2024/02/23 17:22:43;;;;;;;7.30;4.10;;;;;;;;;;6300520;28;20038;-77
2024/02/23 17:25:45;;;;;;;6.72;3.88;;;;;;;;;;6280922;28;20036;-77
2024/02/23 17:28:50;;;;;;;11.70;6.05;;;;;;;;;;6266758;28;20044;-77
2024/02/23 17:31:54;;;;;;;6.10;3.30;;;;;;;;;;6272757;28;20739;-76
2024/02/23 17:34:58;;;;;;;5.90;3.72;;;;;;;;;;6267373;28;20529;-78
2024/02/23 17:38:02;;;;;;;7.93;4.82;;;;;;;;;;6250583;28;20068;-77
2024/02/23 17:41:05;;;;;;;9.05;4.20;;;;;;;;;;6252256;28;20095;-76
2024/02/23 17:44:08;;;;;;;10.70;6.13;;;;;;;;;;6270326;28;20487;-75
2024/02/23 17:47:10;;;;;;;12.77;7.30;;;;;;;;;;6237218;28;20053;-77
2024/02/23 17:50:14;;;;;;;13.93;7.20;;;;;;;;;;6258937;28;20047;-76
2024/02/23 17:53:16;;;;;;;21.08;12.23;;;;;;;;;;6268960;28;20434;-76
2024/02/23 17:56:18;;;;;;;11.48;7.57;;;;;;;;;;6284584;28;20045;-76
2024/02/23 17:59:20;;;;;;;14.52;8.00;;;;;;;;;;6245412;28;20045;-77
2024/02/23 18:02:25;;;;;;;6.63;4.43;;;;;;;;;;6267729;28;20032;-77
2024/02/23 18:05:28;;;;;;;7.40;4.40;;;;;;;;;;6283109;28;20040;-75
2024/02/23 18:08:32;;;;;;;12.93;8.07;;;;;;;;;;6265500;28;20213;-77
2024/02/23 18:11:34;;;;;;;61.05;30.70;;;;;;;;;;6268952;28;20048;-75
2024/02/23 18:14:37;;;;;;;6.53;4.18;;;;;;;;;;6245885;28;20099;-79
2024/02/23 18:17:39;;;;;;;25.48;17.13;;;;;;;;;;6213988;28;20140;-77